Time;durP1;ratioP1;P1;durP2;ratioP2;P2;SDS_P1;SDS_P2;PMS_P1;PMS_P2;Temp;Humidity;BMP_temperature;BMP_pressure;BME280_temperature;BME280_humidity;BME280_pressure;Samples;Min_cycle;Max_cycle;Signal;HPM_P1;HPM_P2
2023/12/31 00:00:35;;;;;;;90.77;56.57;;;;;;;;;;5047964;28;20025;-49
2023/12/31 00:03:01;;;;;;;88.90;59.40;;;;;;;;;;5031331;28;20041;-47
2023/12/31 00:05:28;;;;;;;93.30;59.47;;;;;;;;;;5034749;28;20051;-49
2023/12/31 00:07:54;;;;;;;89.55;59.05;;;;;;;;;;5050781;28;20328;-48
2023/12/31 00:10:21;;;;;;;91.60;58.63;;;;;;;;;;5052411;28;20021;-48
2023/12/31 00:12:47;;;;;;;88.32;59.17;;;;;;;;;;5050839;28;20043;-49
2023/12/31 00:15:14;;;;;;;80.57;56.70;;;;;;;;;;5041327;28;20034;-49
2023/12/31 00:17:41;;;;;;;90.95;59.28;;;;;;;;;;5051186;28;20040;-50
2023/12/31 00:20:07;;;;;;;91.75;56.72;;;;;;;;;;5037916;28;20664;-46
2023/12/31 00:22:33;;;;;;;90.18;58.90;;;;;;;;;;5047527;28;20037;-47
2023/12/31 00:25:00;;;;;;;89.15;59.35;;;;;;;;;;5037441;28;20138;-46
2023/12/31 00:27:26;;;;;;;81.03;56.57;;;;;;;;;;5041272;28;20443;-46
2023/12/31 00:29:52;;;;;;;90.57;56.65;;;;;;;;;;5044374;28;20446;-47
2023/12/31 00:32:18;;;;;;;89.95;58.72;;;;;;;;;;5046033;28;20032;-48
2023/12/31 00:34:44;;;;;;;93.63;59.97;;;;;;;;;;5046375;28;20033;-45
2023/12/31 00:37:11;;;;;;;91.25;56.22;;;;;;;;;;5031641;28;20389;-46
2023/12/31 00:39:37;;;;;;;87.13;58.30;;;;;;;;;;5034074;28;20104;-47
2023/12/31 00:42:04;;;;;;;92.18;57.38;;;;;;;;;;5031409;28;20033;-45
2023/12/31 00:44:30;;;;;;;95.18;59.40;;;;;;;;;;5032725;28;20116;-47
2023/12/31 00:46:57;;;;;;;90.30;59.80;;;;;;;;;;5031871;28;20097;-46
2023/12/31 00:49:23;;;;;;;86.90;58.33;;;;;;;;;;5031751;28;20535;-45
2023/12/31 00:51:49;;;;;;;91.00;59.42;;;;;;;;;;5037490;28;20125;-47
2023/12/31 00:54:15;;;;;;;97.20;60.42;;;;;;;;;;5050111;28;20029;-47
2023/12/31 00:56:41;;;;;;;85.80;58.75;;;;;;;;;;5051567;28;20407;-49
2023/12/31 00:59:08;;;;;;;88.95;59.35;;;;;;;;;;5050267;28;20064;-47
2023/12/31 01:01:35;;;;;;;84.33;55.73;;;;;;;;;;5047519;28;20518;-48
2023/12/31 01:04:01;;;;;;;92.43;58.80;;;;;;;;;;5050138;28;20025;-48
2023/12/31 01:06:27;;;;;;;92.40;59.00;;;;;;;;;;5051204;28;20033;-47
2023/12/31 01:08:54;;;;;;;87.57;59.08;;;;;;;;;;5033437;28;20067;-45
2023/12/31 01:11:21;;;;;;;90.70;60.00;;;;;;;;;;5031580;28;20553;-47
2023/12/31 01:13:47;;;;;;;94.05;60.05;;;;;;;;;;5032153;23;20033;-50
2023/12/31 01:16:13;;;;;;;96.07;63.43;;;;;;;;;;4993138;28;20447;-48
2023/12/31 01:18:40;;;;;;;94.57;59.37;;;;;;;;;;5008545;28;20256;-46
2023/12/31 01:21:06;;;;;;;90.07;58.33;;;;;;;;;;4997039;28;20025;-46
2023/12/31 01:23:32;;;;;;;91.80;59.80;;;;;;;;;;5031257;28;20470;-48
2023/12/31 01:25:58;;;;;;;92.60;59.93;;;;;;;;;;5028936;28;20108;-48
2023/12/31 01:28:24;;;;;;;95.78;60.72;;;;;;;;;;5029918;28;20033;-46
2023/12/31 01:30:50;;;;;;;92.97;62.28;;;;;;;;;;5029482;28;20448;-47
2023/12/31 01:33:17;;;;;;;97.45;61.00;;;;;;;;;;5014698;28;20404;-46
2023/12/31 01:35:43;;;;;;;95.78;61.60;;;;;;;;;;5028607;28;20033;-47
2023/12/31 01:38:09;;;;;;;99.35;63.92;;;;;;;;;;5030446;28;20044;-46
2023/12/31 01:40:35;;;;;;;93.47;59.97;;;;;;;;;;5028518;28;20045;-47
2023/12/31 01:43:01;;;;;;;87.25;57.42;;;;;;;;;;5031000;28;20068;-47
2023/12/31 01:45:28;;;;;;;92.03;57.60;;;;;;;;;;5027899;28;20026;-47
2023/12/31 01:47:54;;;;;;;101.72;61.03;;;;;;;;;;5015549;28;20264;-46
2023/12/31 01:50:22;;;;;;;88.43;57.70;;;;;;;;;;5029695;28;20339;-47
2023/12/31 01:52:48;;;;;;;90.28;58.65;;;;;;;;;;5017357;28;20030;-47
2023/12/31 01:55:15;;;;;;;92.80;60.88;;;;;;;;;;5031020;28;20396;-47
2023/12/31 01:57:42;;;;;;;88.15;57.70;;;;;;;;;;5030016;28;20499;-46
2023/12/31 02:00:09;;;;;;;92.00;60.05;;;;;;;;;;5028787;28;20037;-47
2023/12/31 02:02:43;;;;;;;96.70;61.75;;;;;;;;;;5011368;28;20034;-46
2023/12/31 02:05:11;;;;;;;101.47;61.45;;;;;;;;;;5024936;28;20026;-47
2023/12/31 02:07:37;;;;;;;91.05;61.55;;;;;;;;;;5012772;28;20092;-45
2023/12/31 02:10:04;;;;;;;87.27;60.13;;;;;;;;;;5029644;28;20022;-45
2023/12/31 02:12:30;;;;;;;98.30;61.72;;;;;;;;;;5018658;28;20117;-47
2023/12/31 02:14:57;;;;;;;95.63;62.28;;;;;;;;;;5011122;28;20030;-47
2023/12/31 02:17:23;;;;;;;92.50;61.80;;;;;;;;;;4995051;28;20573;-46
2023/12/31 02:19:49;;;;;;;95.03;60.58;;;;;;;;;;5021959;28;20025;-46
2023/12/31 02:22:15;;;;;;;102.80;65.60;;;;;;;;;;5018544;28;20026;-47
2023/12/31 02:24:47;;;;;;;98.53;61.40;;;;;;;;;;5012569;28;20037;-47
2023/12/31 02:27:14;;;;;;;95.60;60.17;;;;;;;;;;5011429;28;20121;-47
2023/12/31 02:29:40;;;;;;;95.80;61.72;;;;;;;;;;5024064;28;20184;-46
2023/12/31 02:32:06;;;;;;;90.47;61.75;;;;;;;;;;5018345;28;20492;-47
2023/12/31 02:34:32;;;;;;;102.10;63.92;;;;;;;;;;5022438;28;20025;-46
2023/12/31 02:36:59;;;;;;;94.05;61.75;;;;;;;;;;5034278;28;20053;-47
2023/12/31 02:39:25;;;;;;;95.25;63.08;;;;;;;;;;5032721;28;20033;-47
2023/12/31 02:41:51;;;;;;;94.10;59.97;;;;;;;;;;5032635;28;20037;-49
2023/12/31 02:44:18;;;;;;;106.97;63.58;;;;;;;;;;5017322;28;20037;-46
2023/12/31 02:46:44;;;;;;;90.43;58.42;;;;;;;;;;5027835;28;20029;-46
2023/12/31 02:49:11;;;;;;;91.65;59.90;;;;;;;;;;5015805;28;20065;-47
2023/12/31 02:51:40;;;;;;;92.85;56.78;;;;;;;;;;5014031;28;20029;-47
2023/12/31 02:54:06;;;;;;;89.72;58.05;;;;;;;;;;5024945;28;20029;-47
2023/12/31 02:56:39;;;;;;;103.20;62.00;;;;;;;;;;5031080;28;20080;-46
2023/12/31 02:59:05;;;;;;;100.53;58.65;;;;;;;;;;5024910;28;20028;-46
2023/12/31 03:01:32;;;;;;;;;;;;;;;;;;5021301;28;20022;-46
2023/12/31 03:03:58;;;;;;;91.00;59.92;;;;;;;;;;5013961;28;19910;-47
2023/12/31 03:06:32;;;;;;;90.53;58.90;;;;;;;;;;5040484;28;20029;-47
2023/12/31 03:09:01;;;;;;;90.72;61.22;;;;;;;;;;5010760;28;20056;-48
2023/12/31 03:11:27;;;;;;;82.55;58.30;;;;;;;;;;5015321;28;20510;-47
2023/12/31 03:13:54;;;;;;;95.85;59.20;;;;;;;;;;5014368;28;20534;-47
2023/12/31 03:16:20;;;;;;;97.57;61.28;;;;;;;;;;5009737;28;20535;-47
2023/12/31 03:18:47;;;;;;;93.93;63.08;;;;;;;;;;5020154;28;20045;-47
2023/12/31 03:21:15;;;;;;;101.03;64.50;;;;;;;;;;5015405;28;20488;-46
2023/12/31 03:23:41;;;;;;;98.72;63.53;;;;;;;;;;5028264;28;20033;-47
2023/12/31 03:26:07;;;;;;;93.50;59.75;;;;;;;;;;5024154;28;20026;-47
2023/12/31 03:28:34;;;;;;;91.95;60.55;;;;;;;;;;5016996;28;20030;-47
2023/12/31 03:31:00;;;;;;;87.77;58.17;;;;;;;;;;5025978;28;20034;-49
2023/12/31 03:33:26;;;;;;;89.05;57.67;;;;;;;;;;5014749;28;20416;-46
2023/12/31 03:35:52;;;;;;;92.75;59.17;;;;;;;;;;5012518;28;20030;-47
2023/12/31 03:38:19;;;;;;;99.07;63.20;;;;;;;;;;5013315;28;20057;-45
2023/12/31 03:40:45;;;;;;;100.97;63.63;;;;;;;;;;5014579;28;20303;-46
2023/12/31 03:43:11;;;;;;;92.30;61.55;;;;;;;;;;5024286;28;20079;-45
2023/12/31 03:45:40;;;;;;;93.43;60.20;;;;;;;;;;5028458;28;20018;-46
2023/12/31 03:48:06;;;;;;;102.10;63.65;;;;;;;;;;5007691;28;20395;-45
2023/12/31 03:50:33;;;;;;;98.18;63.70;;;;;;;;;;5017161;28;20076;-47
2023/12/31 03:52:59;;;;;;;99.30;63.35;;;;;;;;;;5013076;28;20095;-48
2023/12/31 03:55:25;;;;;;;87.93;58.78;;;;;;;;;;5004043;28;20036;-46
2023/12/31 03:57:52;;;;;;;93.30;61.03;;;;;;;;;;5019767;28;20026;-46
2023/12/31 04:00:18;;;;;;;97.35;62.58;;;;;;;;;;5022392;28;20455;-48
2023/12/31 04:02:44;;;;;;;93.93;60.72;;;;;;;;;;5031459;28;20030;-47
2023/12/31 04:05:11;;;;;;;92.57;62.22;;;;;;;;;;5016445;28;20029;-47
2023/12/31 04:07:39;;;;;;;91.28;57.85;;;;;;;;;;5023241;28;20052;-46
2023/12/31 04:10:05;;;;;;;91.97;60.28;;;;;;;;;;5020907;28;20026;-47
2023/12/31 04:12:31;;;;;;;94.23;62.40;;;;;;;;;;5026353;28;20412;-46
2023/12/31 04:14:57;;;;;;;85.70;58.33;;;;;;;;;;5011424;28;20381;-47
2023/12/31 04:17:24;;;;;;;94.25;62.65;;;;;;;;;;5029706;28;20040;-47
2023/12/31 04:19:51;;;;;;;89.00;58.47;;;;;;;;;;5025399;28;20037;-46
2023/12/31 04:22:17;;;;;;;85.88;57.67;;;;;;;;;;5031179;28;20484;-48
2023/12/31 04:24:43;;;;;;;91.88;62.50;;;;;;;;;;5032040;28;20099;-47
2023/12/31 04:27:10;;;;;;;87.00;59.33;;;;;;;;;;5025822;28;20045;-46
2023/12/31 04:29:36;;;;;;;91.85;59.35;;;;;;;;;;5012509;28;20026;-46
2023/12/31 04:32:02;;;;;;;87.18;57.90;;;;;;;;;;5028148;28;20104;-48
2023/12/31 04:34:28;;;;;;;94.63;61.42;;;;;;;;;;5028918;28;20031;-47
2023/12/31 04:36:54;;;;;;;98.30;61.78;;;;;;;;;;5023119;28;20083;-46
2023/12/31 04:39:21;;;;;;;94.97;58.85;;;;;;;;;;5030109;28;20037;-47
2023/12/31 04:41:47;;;;;;;92.97;59.00;;;;;;;;;;5030431;28;20466;-47
2023/12/31 04:44:13;;;;;;;88.20;58.60;;;;;;;;;;5016193;28;20026;-47
2023/12/31 04:46:40;;;;;;;88.03;58.25;;;;;;;;;;5003802;28;20400;-47
2023/12/31 04:49:06;;;;;;;109.43;63.50;;;;;;;;;;5028462;28;20067;-48
2023/12/31 04:51:32;;;;;;;100.82;62.30;;;;;;;;;;5025439;28;20464;-47
2023/12/31 04:53:59;;;;;;;103.90;61.30;;;;;;;;;;5017445;28;20029;-48
2023/12/31 04:56:25;;;;;;;96.60;64.27;;;;;;;;;;5027913;28;20041;-47
2023/12/31 04:58:52;;;;;;;84.40;56.92;;;;;;;;;;5016254;28;20025;-48
2023/12/31 05:01:19;;;;;;;85.82;57.17;;;;;;;;;;5017313;28;20484;-48
2023/12/31 05:03:46;;;;;;;86.63;56.70;;;;;;;;;;5012085;28;20030;-47
2023/12/31 05:06:13;;;;;;;90.38;58.50;;;;;;;;;;5013334;28;20392;-47
2023/12/31 05:08:43;;;;;;;90.60;59.40;;;;;;;;;;5015924;28;20025;-48
2023/12/31 05:11:09;;;;;;;95.32;61.40;;;;;;;;;;5031787;28;20038;-48
2023/12/31 05:13:36;;;;;;;97.70;60.17;;;;;;;;;;5017847;28;20022;-49
2023/12/31 05:16:02;;;;;;;85.37;56.10;;;;;;;;;;5019054;28;20025;-48
2023/12/31 05:18:28;;;;;;;86.53;56.35;;;;;;;;;;5016939;28;20681;-48
2023/12/31 05:20:55;;;;;;;89.23;56.27;;;;;;;;;;5021253;28;20538;-48
2023/12/31 05:23:21;;;;;;;93.55;62.30;;;;;;;;;;5029698;28;20032;-48
2023/12/31 05:25:48;;;;;;;95.43;62.27;;;;;;;;;;5026935;28;20029;-47
2023/12/31 05:28:14;;;;;;;99.53;62.70;;;;;;;;;;5010460;28;20265;-49
2023/12/31 05:30:41;;;;;;;95.00;60.22;;;;;;;;;;5011827;28;20049;-47
2023/12/31 05:33:08;;;;;;;99.95;63.40;;;;;;;;;;5011924;28;20026;-47
2023/12/31 05:35:34;;;;;;;90.05;61.67;;;;;;;;;;5011924;28;20026;-49
2023/12/31 05:38:00;;;;;;;86.32;56.33;;;;;;;;;;5015240;28;20030;-47
2023/12/31 05:40:26;;;;;;;104.45;60.95;;;;;;;;;;5031453;28;20087;-47
2023/12/31 05:42:52;;;;;;;94.13;60.88;;;;;;;;;;5031226;28;20025;-48
2023/12/31 05:45:18;;;;;;;92.63;61.03;;;;;;;;;;5051272;28;20032;-48
2023/12/31 05:47:46;;;;;;;105.15;68.82;;;;;;;;;;5051408;28;20032;-48
2023/12/31 05:50:13;;;;;;;90.65;61.53;;;;;;;;;;5051142;28;20028;-48
2023/12/31 05:52:39;;;;;;;100.85;64.00;;;;;;;;;;5049890;28;20399;-49
2023/12/31 05:55:05;;;;;;;98.72;61.80;;;;;;;;;;5026083;28;20508;-47
2023/12/31 05:57:31;;;;;;;101.25;62.65;;;;;;;;;;5021965;28;20033;-47
2023/12/31 05:59:59;;;;;;;96.60;61.88;;;;;;;;;;5033989;28;20377;-48
2023/12/31 06:02:25;;;;;;;95.63;61.75;;;;;;;;;;5017216;28;20033;-47
2023/12/31 06:04:52;;;;;;;93.70;62.40;;;;;;;;;;5020834;28;20014;-47
2023/12/31 06:07:18;;;;;;;94.70;61.30;;;;;;;;;;5015373;28;20527;-48
2023/12/31 06:09:45;;;;;;;94.93;62.20;;;;;;;;;;5006625;28;20080;-49
2023/12/31 06:12:11;;;;;;;87.50;58.25;;;;;;;;;;5015652;28;20030;-48
2023/12/31 06:14:37;;;;;;;90.15;60.28;;;;;;;;;;5013711;28;20061;-48
2023/12/31 06:17:03;;;;;;;98.50;61.88;;;;;;;;;;5029713;28;20068;-50
2023/12/31 06:19:30;;;;;;;93.20;62.05;;;;;;;;;;5029471;28;20025;-48
2023/12/31 06:21:56;;;;;;;96.45;63.25;;;;;;;;;;5025822;28;20523;-51
2023/12/31 06:24:22;;;;;;;96.35;66.22;;;;;;;;;;5031578;28;20030;-48
2023/12/31 06:26:48;;;;;;;101.18;68.00;;;;;;;;;;5026274;28;20061;-48
2023/12/31 06:29:15;;;;;;;100.57;66.20;;;;;;;;;;5014861;28;20025;-48
2023/12/31 06:31:41;;;;;;;86.13;58.55;;;;;;;;;;5017751;28;20034;-48
2023/12/31 06:34:07;;;;;;;97.15;63.42;;;;;;;;;;5020626;28;20393;-48
2023/12/31 06:36:33;;;;;;;94.40;62.55;;;;;;;;;;5015153;28;20503;-54
2023/12/31 06:39:00;;;;;;;95.07;65.18;;;;;;;;;;5028197;28;20025;-47
2023/12/31 06:41:26;;;;;;;110.22;84.65;;;;;;;;;;5024932;28;20018;-49
2023/12/31 06:43:53;;;;;;;94.82;68.80;;;;;;;;;;5017444;28;20037;-48
2023/12/31 06:46:19;;;;;;;98.10;67.85;;;;;;;;;;5024493;28;20032;-48
2023/12/31 06:48:45;;;;;;;89.93;60.70;;;;;;;;;;5023050;28;20056;-48
2023/12/31 06:51:11;;;;;;;96.20;63.60;;;;;;;;;;5028128;28;20147;-49
2023/12/31 06:53:38;;;;;;;89.13;60.17;;;;;;;;;;5010749;28;20372;-51
2023/12/31 06:56:08;;;;;;;95.57;59.55;;;;;;;;;;5007402;28;20798;-52
2023/12/31 06:58:37;;;;;;;99.82;61.15;;;;;;;;;;5031898;28;20121;-50
2023/12/31 07:01:04;;;;;;;90.75;62.05;;;;;;;;;;5012453;28;20034;-52
2023/12/31 07:03:30;;;;;;;87.40;58.35;;;;;;;;;;5017086;28;20041;-50
2023/12/31 07:05:57;;;;;;;100.82;64.88;;;;;;;;;;5032873;28;20033;-49
2023/12/31 07:08:23;;;;;;;101.73;69.00;;;;;;;;;;5029607;28;20025;-51
2023/12/31 07:10:53;;;;;;;117.43;72.67;;;;;;;;;;5024576;28;20269;-50
2023/12/31 07:13:19;;;;;;;93.90;62.45;;;;;;;;;;5036578;28;20280;-50
2023/12/31 07:15:45;;;;;;;94.50;61.35;;;;;;;;;;5044416;23;20063;-53
2023/12/31 07:18:12;;;;;;;101.83;63.93;;;;;;;;;;5013001;28;20025;-51
2023/12/31 07:20:38;;;;;;;92.03;61.30;;;;;;;;;;5029912;28;20025;-51
2023/12/31 07:23:04;;;;;;;91.18;58.40;;;;;;;;;;4971380;28;20665;-52
2023/12/31 07:25:32;;;;;;;95.20;63.15;;;;;;;;;;4994251;28;20031;-50
2023/12/31 07:28:01;;;;;;;90.65;61.85;;;;;;;;;;5000334;28;20030;-51
2023/12/31 07:30:27;;;;;;;92.78;61.03;;;;;;;;;;5013862;28;20399;-55
2023/12/31 07:32:53;;;;;;;91.47;59.78;;;;;;;;;;5004158;28;20038;-53
2023/12/31 07:35:20;;;;;;;89.30;60.50;;;;;;;;;;5001526;28;20049;-51
2023/12/31 07:37:46;;;;;;;90.50;60.13;;;;;;;;;;4997181;28;20141;-57
2023/12/31 07:40:12;;;;;;;93.50;58.37;;;;;;;;;;5003685;28;20492;-53
2023/12/31 07:42:38;;;;;;;94.60;59.90;;;;;;;;;;4999929;28;20284;-53
2023/12/31 07:45:05;;;;;;;95.07;62.13;;;;;;;;;;4997883;28;20022;-56
2023/12/31 07:47:35;;;;;;;96.85;61.03;;;;;;;;;;4989410;28;20050;-55
2023/12/31 07:50:02;;;;;;;100.45;66.20;;;;;;;;;;4998768;28;20030;-51
2023/12/31 07:52:29;;;;;;;96.88;62.85;;;;;;;;;;4999096;28;20117;-51
2023/12/31 07:54:55;;;;;;;105.87;63.10;;;;;;;;;;4998408;28;20027;-56
2023/12/31 07:57:21;;;;;;;97.20;62.25;;;;;;;;;;4996838;28;20276;-54
2023/12/31 07:59:47;;;;;;;97.90;61.15;;;;;;;;;;4999269;28;20664;-51
2023/12/31 08:02:14;;;;;;;99.27;63.10;;;;;;;;;;5001939;28;20101;-56
2023/12/31 08:04:40;;;;;;;97.28;64.30;;;;;;;;;;5004277;28;20784;-49
2023/12/31 08:07:06;;;;;;;102.45;64.57;;;;;;;;;;5002783;28;20572;-48
2023/12/31 08:09:32;;;;;;;116.87;69.50;;;;;;;;;;4998471;28;20050;-47
2023/12/31 08:11:58;;;;;;;101.53;66.80;;;;;;;;;;4998077;28;20384;-48
2023/12/31 08:14:25;;;;;;;94.40;61.30;;;;;;;;;;5002545;28;20041;-49
2023/12/31 08:16:51;;;;;;;97.22;68.35;;;;;;;;;;4998612;28;20029;-48
2023/12/31 08:19:17;;;;;;;101.50;67.82;;;;;;;;;;4998640;28;20049;-48
2023/12/31 08:21:43;;;;;;;97.47;68.78;;;;;;;;;;4997770;28;20029;-49
2023/12/31 08:24:10;;;;;;;99.95;67.47;;;;;;;;;;4998335;28;20022;-47
2023/12/31 08:26:37;;;;;;;103.05;68.32;;;;;;;;;;5000683;28;20022;-51
2023/12/31 08:29:03;;;;;;;99.70;66.47;;;;;;;;;;4998192;28;20076;-51
2023/12/31 08:31:30;;;;;;;97.35;66.28;;;;;;;;;;4998354;28;20499;-52
2023/12/31 08:33:56;;;;;;;97.70;66.82;;;;;;;;;;4998432;28;20121;-48
2023/12/31 08:36:22;;;;;;;107.05;72.43;;;;;;;;;;4997893;28;20033;-47
2023/12/31 08:38:48;;;;;;;106.97;74.82;;;;;;;;;;5006288;28;20404;-50
2023/12/31 08:41:14;;;;;;;96.65;65.55;;;;;;;;;;4995191;28;20026;-50
2023/12/31 08:43:40;;;;;;;98.47;68.60;;;;;;;;;;4999371;28;20023;-50
2023/12/31 08:46:07;;;;;;;97.00;67.63;;;;;;;;;;4996596;28;20029;-47
2023/12/31 08:48:33;;;;;;;112.97;71.27;;;;;;;;;;5001153;28;20045;-47
2023/12/31 08:51:00;;;;;;;93.68;62.92;;;;;;;;;;5009037;28;20465;-51
2023/12/31 08:53:26;;;;;;;103.22;68.68;;;;;;;;;;5003100;28;20037;-48
2023/12/31 08:55:52;;;;;;;106.85;71.75;;;;;;;;;;4979385;28;20501;-50
2023/12/31 08:58:19;;;;;;;109.70;72.90;;;;;;;;;;5000668;28;20034;-51
2023/12/31 09:00:45;;;;;;;106.17;71.10;;;;;;;;;;4992004;28;20424;-53
2023/12/31 09:03:11;;;;;;;106.57;74.07;;;;;;;;;;4998699;28;20277;-48
2023/12/31 09:05:37;;;;;;;108.22;70.35;;;;;;;;;;5005552;28;20030;-48
2023/12/31 09:08:04;;;;;;;108.13;70.03;;;;;;;;;;5001229;28;20060;-48
2023/12/31 09:10:30;;;;;;;101.37;68.93;;;;;;;;;;4997590;28;20122;-48
2023/12/31 09:12:56;;;;;;;134.18;97.22;;;;;;;;;;5002474;28;20281;-48
2023/12/31 09:15:22;;;;;;;124.57;89.53;;;;;;;;;;5002766;28;20395;-51
2023/12/31 09:17:49;;;;;;;105.95;69.70;;;;;;;;;;5001089;28;20025;-53
2023/12/31 09:20:15;;;;;;;119.50;74.03;;;;;;;;;;4998723;28;20452;-50
2023/12/31 09:22:41;;;;;;;108.60;69.65;;;;;;;;;;4997107;28;20029;-48
2023/12/31 09:25:08;;;;;;;107.85;70.28;;;;;;;;;;5009269;28;20120;-49
2023/12/31 09:27:34;;;;;;;110.82;71.15;;;;;;;;;;5004409;28;20034;-48
2023/12/31 09:30:01;;;;;;;110.32;70.80;;;;;;;;;;4998801;28;20476;-48
2023/12/31 09:32:27;;;;;;;118.35;74.53;;;;;;;;;;4997039;28;20069;-48
2023/12/31 09:34:53;;;;;;;103.78;70.30;;;;;;;;;;4999840;28;20061;-54
2023/12/31 09:37:19;;;;;;;106.18;69.28;;;;;;;;;;5004689;28;20053;-50
2023/12/31 09:39:49;;;;;;;109.50;71.23;;;;;;;;;;5008977;28;20038;-54
2023/12/31 09:42:35;;;;;;;103.00;67.30;;;;;;;;;;5002458;28;20034;-49
2023/12/31 09:45:04;;;;;;;112.63;71.68;;;;;;;;;;5013572;28;20041;-50
2023/12/31 09:47:32;;;;;;;112.32;69.88;;;;;;;;;;5008004;28;20022;-48
2023/12/31 09:49:59;;;;;;;115.78;73.85;;;;;;;;;;4998327;28;20034;-48
2023/12/31 09:52:27;;;;;;;117.43;74.05;;;;;;;;;;4980052;28;20027;-52
2023/12/31 09:54:54;;;;;;;118.10;73.65;;;;;;;;;;5012359;28;20566;-49
2023/12/31 09:57:20;;;;;;;;;;;;;;;;;;5007883;28;20030;-48
2023/12/31 09:59:48;;;;;;;123.25;81.15;;;;;;;;;;4998769;28;19909;-48
2023/12/31 10:02:22;;;;;;;171.02;115.60;;;;;;;;;;5000901;28;20109;-48
2023/12/31 10:04:53;;;;;;;115.32;76.15;;;;;;;;;;5011642;28;20033;-48
2023/12/31 10:07:22;;;;;;;114.07;66.85;;;;;;;;;;5005349;28;20041;-50
2023/12/31 10:09:49;;;;;;;109.22;70.97;;;;;;;;;;4999332;28;20028;-49
2023/12/31 10:12:17;;;;;;;114.57;74.10;;;;;;;;;;4979552;28;20543;-52
2023/12/31 10:14:43;;;;;;;132.02;85.03;;;;;;;;;;5009516;28;20125;-48
2023/12/31 10:17:10;;;;;;;123.87;84.17;;;;;;;;;;5006916;28;20488;-48
2023/12/31 10:19:36;;;;;;;125.65;80.90;;;;;;;;;;5015062;28;20308;-51
2023/12/31 10:22:06;;;;;;;110.17;73.03;;;;;;;;;;5009538;28;20105;-48
2023/12/31 10:24:32;;;;;;;115.35;70.68;;;;;;;;;;5007512;28;20264;-48
2023/12/31 10:27:02;;;;;;;122.03;73.07;;;;;;;;;;5009025;28;20018;-50
2023/12/31 10:29:28;;;;;;;127.70;81.32;;;;;;;;;;5008382;28;20632;-50
2023/12/31 10:31:55;;;;;;;123.27;79.13;;;;;;;;;;5011307;28;20026;-49
2023/12/31 10:34:21;;;;;;;120.57;78.78;;;;;;;;;;5002939;28;20057;-48
2023/12/31 10:36:48;;;;;;;124.30;79.60;;;;;;;;;;5000263;28;20030;-47
2023/12/31 10:39:29;;;;;;;114.32;70.88;;;;;;;;;;5003550;28;20030;-47
2023/12/31 10:42:00;;;;;;;114.38;73.63;;;;;;;;;;4997988;28;20069;-48
2023/12/31 10:44:26;;;;;;;123.40;78.05;;;;;;;;;;5000322;28;20121;-47
2023/12/31 10:46:53;;;;;;;125.35;76.47;;;;;;;;;;4999024;28;20026;-51
2023/12/31 10:49:22;;;;;;;125.28;76.93;;;;;;;;;;5006541;28;20021;-49
2023/12/31 10:51:53;;;;;;;116.95;73.75;;;;;;;;;;5011484;28;20376;-49
2023/12/31 10:54:26;;;;;;;114.32;73.30;;;;;;;;;;5006613;28;20037;-49
2023/12/31 10:56:54;;;;;;;122.97;75.72;;;;;;;;;;5010183;28;20034;-50
2023/12/31 10:59:21;;;;;;;120.95;77.55;;;;;;;;;;4993432;28;20026;-48
2023/12/31 11:01:48;;;;;;;124.57;74.43;;;;;;;;;;4995533;28;20121;-48
2023/12/31 11:04:16;;;;;;;124.43;78.75;;;;;;;;;;5005900;28;20022;-47
2023/12/31 11:06:42;;;;;;;122.20;77.10;;;;;;;;;;5009661;28;20033;-48
2023/12/31 11:09:09;;;;;;;120.68;73.13;;;;;;;;;;4995279;28;20544;-48
2023/12/31 11:11:36;;;;;;;130.65;76.60;;;;;;;;;;4999759;28;20069;-48
2023/12/31 11:14:04;;;;;;;126.43;80.50;;;;;;;;;;5005484;28;20049;-50
2023/12/31 11:16:48;;;;;;;136.30;83.25;;;;;;;;;;5010075;28;20045;-48
2023/12/31 11:19:23;;;;;;;133.98;85.85;;;;;;;;;;5000982;28;20037;-49
2023/12/31 11:22:13;;;;;;;126.20;78.75;;;;;;;;;;4999885;28;20111;-49
2023/12/31 11:24:39;;;;;;;126.40;78.18;;;;;;;;;;4971820;28;20042;-51
2023/12/31 11:27:09;;;;;;;125.95;74.60;;;;;;;;;;5006277;28;20030;-50
2023/12/31 11:29:36;;;;;;;126.10;75.55;;;;;;;;;;4999670;28;20037;-49
2023/12/31 11:32:04;;;;;;;122.05;77.40;;;;;;;;;;4997914;28;20011;-49
2023/12/31 11:34:35;;;;;;;127.20;77.88;;;;;;;;;;5000545;28;20085;-48
2023/12/31 11:37:01;;;;;;;129.05;77.10;;;;;;;;;;5000132;28;20018;-52
2023/12/31 11:39:27;;;;;;;132.48;80.35;;;;;;;;;;5005483;28;20025;-51
2023/12/31 11:41:59;;;;;;;134.37;84.27;;;;;;;;;;5009861;28;20033;-49
2023/12/31 11:44:38;;;;;;;139.93;87.95;;;;;;;;;;4999533;28;20027;-52
2023/12/31 11:47:14;;;;;;;141.68;91.50;;;;;;;;;;4998762;28;20017;-48
2023/12/31 11:49:41;;;;;;;134.98;85.60;;;;;;;;;;4995498;28;20030;-52
2023/12/31 11:52:08;;;;;;;144.40;88.68;;;;;;;;;;5003107;28;20033;-48
2023/12/31 11:54:34;;;;;;;146.45;94.60;;;;;;;;;;4993935;28;20108;-50
2023/12/31 11:57:01;;;;;;;136.43;87.88;;;;;;;;;;4996513;28;20022;-47
2023/12/31 11:59:28;;;;;;;146.00;92.50;;;;;;;;;;5003343;28;20022;-52
2023/12/31 12:01:54;;;;;;;146.38;87.07;;;;;;;;;;4998616;28;20058;-52
2023/12/31 12:04:21;;;;;;;141.25;88.10;;;;;;;;;;4999675;28;20496;-48
2023/12/31 12:06:47;;;;;;;141.20;86.47;;;;;;;;;;5004842;28;20030;-51
2023/12/31 12:09:13;;;;;;;148.50;92.00;;;;;;;;;;4994327;28;20054;-49
2023/12/31 12:11:43;;;;;;;152.23;95.35;;;;;;;;;;4994470;28;20061;-48
2023/12/31 12:14:11;;;;;;;154.10;95.72;;;;;;;;;;4999251;28;20030;-52
2023/12/31 12:16:40;;;;;;;152.32;92.22;;;;;;;;;;4996859;28;20124;-49
2023/12/31 12:19:06;;;;;;;154.68;95.93;;;;;;;;;;4990572;28;20121;-50
2023/12/31 12:21:32;;;;;;;150.13;94.32;;;;;;;;;;4987917;28;20032;-51
2023/12/31 12:23:59;;;;;;;161.50;98.68;;;;;;;;;;4992075;28;20038;-49
2023/12/31 12:26:25;;;;;;;152.02;90.93;;;;;;;;;;5004371;28;20027;-47
2023/12/31 12:28:55;;;;;;;163.23;97.80;;;;;;;;;;5000595;28;20106;-48
2023/12/31 12:31:22;;;;;;;159.05;95.93;;;;;;;;;;4991907;28;20035;-48
2023/12/31 12:33:55;;;;;;;157.70;93.03;;;;;;;;;;5000507;28;20026;-48
2023/12/31 12:36:21;;;;;;;161.98;101.47;;;;;;;;;;4992546;28;20052;-51
2023/12/31 12:38:48;;;;;;;155.85;97.53;;;;;;;;;;4992781;28;20022;-48
2023/12/31 12:41:21;;;;;;;153.02;98.28;;;;;;;;;;4992886;28;20489;-51
2023/12/31 12:43:51;;;;;;;155.20;100.20;;;;;;;;;;5006617;28;20033;-49
2023/12/31 12:46:17;;;;;;;155.10;93.95;;;;;;;;;;5005857;28;20536;-48
2023/12/31 12:48:50;;;;;;;160.03;96.37;;;;;;;;;;5000453;28;20496;-49
2023/12/31 12:51:16;;;;;;;148.60;95.32;;;;;;;;;;5004263;28;20153;-50
2023/12/31 12:53:42;;;;;;;154.13;97.50;;;;;;;;;;4997844;28;20061;-47
2023/12/31 12:56:10;;;;;;;152.93;92.80;;;;;;;;;;5009274;28;20050;-49
2023/12/31 12:58:37;;;;;;;144.87;87.27;;;;;;;;;;5002472;28;20045;-51
2023/12/31 13:01:03;;;;;;;136.10;88.85;;;;;;;;;;4995015;28;20057;-51
2023/12/31 13:03:30;;;;;;;148.98;91.57;;;;;;;;;;4997188;28;20026;-48
2023/12/31 13:05:58;;;;;;;133.40;82.50;;;;;;;;;;5008042;28;20026;-48
2023/12/31 13:08:25;;;;;;;140.95;86.57;;;;;;;;;;4999427;28;20282;-48
2023/12/31 13:10:51;;;;;;;139.48;85.28;;;;;;;;;;5000581;28;20623;-50
2023/12/31 13:13:17;;;;;;;140.32;86.20;;;;;;;;;;5000938;28;20036;-52
2023/12/31 13:15:44;;;;;;;139.38;87.18;;;;;;;;;;5004436;28;20030;-48
2023/12/31 13:18:13;;;;;;;251.90;166.27;;;;;;;;;;5028564;23;20029;-48
2023/12/31 13:20:39;;;;;;;137.77;84.05;;;;;;;;;;5029964;28;20033;-52
2023/12/31 13:23:06;;;;;;;145.52;88.93;;;;;;;;;;5028231;28;20041;-49
2023/12/31 13:25:32;;;;;;;136.07;83.90;;;;;;;;;;5012924;28;20025;-47
2023/12/31 13:27:58;;;;;;;135.50;81.20;;;;;;;;;;4998346;28;20345;-48
2023/12/31 13:30:26;;;;;;;144.50;88.53;;;;;;;;;;5007670;28;20491;-49
2023/12/31 13:32:52;;;;;;;138.02;85.40;;;;;;;;;;4990652;28;20042;-48
2023/12/31 13:35:19;;;;;;;138.52;86.15;;;;;;;;;;4990705;28;20038;-49
2023/12/31 13:37:45;;;;;;;143.63;88.78;;;;;;;;;;5002826;28;20025;-47
2023/12/31 13:40:11;;;;;;;139.88;89.50;;;;;;;;;;5010099;28;20030;-47
2023/12/31 13:42:38;;;;;;;143.93;87.40;;;;;;;;;;4999141;28;20104;-50
2023/12/31 13:45:04;;;;;;;146.52;90.15;;;;;;;;;;4990649;28;20144;-50
2023/12/31 13:47:31;;;;;;;152.60;89.63;;;;;;;;;;4998374;28;20033;-49
2023/12/31 13:49:57;;;;;;;147.73;88.40;;;;;;;;;;5010012;28;20030;-48
2023/12/31 13:52:27;;;;;;;151.90;88.65;;;;;;;;;;5009851;28;20264;-48
2023/12/31 13:54:53;;;;;;;143.95;86.30;;;;;;;;;;4983799;28;20030;-51
2023/12/31 13:57:19;;;;;;;147.27;88.05;;;;;;;;;;4997221;28;20042;-51
2023/12/31 13:59:45;;;;;;;156.57;91.23;;;;;;;;;;5009887;28;20056;-50
2023/12/31 14:02:12;;;;;;;157.32;91.57;;;;;;;;;;4984122;28;20035;-51
2023/12/31 14:04:38;;;;;;;152.68;89.32;;;;;;;;;;4990407;28;20027;-51
2023/12/31 14:07:04;;;;;;;148.70;88.03;;;;;;;;;;4990333;28;20445;-50
2023/12/31 14:09:30;;;;;;;143.30;87.73;;;;;;;;;;4972706;28;20114;-48